Aviation Digital Data Service (ADDS)

Output produced by METARs form (1118 UTC 22 January 2022)
found at http://aviationweather.gov/metar/data/
 
METAR text: EPRZ 221100Z 30012KT 3500 -SHSN BKN011CB M02/M04 Q1016 RESHSN
Conditions at: EPRZ (RZESZOW/JASIONKA, PL) observed 1100 UTC 22 January 2022
Temperature: -2.0°C (28°F)
Dewpoint: -4.0°C (25°F) [RH = 86%]
Pressure (altimeter): 30.00 inches Hg (1016.0 mb)
Winds: from the WNW (300 degrees) at 14 MPH (12 knots; 6.2 m/s)
Visibility: 2.17 miles (3.49 km)
Ceiling: 1100 feet AGL
Clouds: broken clouds at 1100 feet AGL
Weather: -SHSN  (light snow showers)

METAR text: EPRZ 221030Z 30015KT 1300 R27/1200U SHSN BKN011CB M02/M04 Q1016
Conditions at: EPRZ (RZESZOW/JASIONKA, PL) observed 1030 UTC 22 January 2022
Temperature: -2.0°C (28°F)
Dewpoint: -4.0°C (25°F) [RH = 86%]
Pressure (altimeter): 30.00 inches Hg (1016.0 mb)
Winds: from the WNW (300 degrees) at 17 MPH (15 knots; 7.7 m/s)
Visibility: 0.81 miles (1.30 km)
Ceiling: 1100 feet AGL
Clouds: broken clouds at 1100 feet AGL
Weather: SHSN  (snow showers)

Forecast for: AMD
Text: TAF AMD EPRZ 220700Z 2207/2306 30014KT 9999 BKN030
Forecast period: 0700 UTC 22 January 2022 to 0600 UTC 23 January 2022
Forecast type: FROM: standard forecast or significant change
Winds: from the WNW (300 degrees) at 16 MPH (14 knots; 7.2 m/s)
Visibility: 6 or more miles (10+ km)
Ceiling: 3000 feet AGL
Clouds: broken clouds at 3000 feet AGL
Weather: no significant weather forecast for this period
Text: TEMPO 2207/2306 4000 SHSN BKN013CB
Forecast period: 0700 UTC 22 January 2022 to 0600 UTC 23 January 2022
Forecast type: TEMPORARY: The following changes expected for less than half the time period
Visibility: 2.49 miles (4.01 km)
Ceiling: 1300 feet AGL
Clouds: broken clouds at 1300 feet AGL
Weather: SHSN  (snow showers)
Text: PROB30
Forecast period: 0700 to 1500 UTC 22 January 2022
Forecast type: TEMPORARY: The following changes expected for less than half the time period
Winds: from the NNW (340 degrees) at 18 MPH (16 knots; 8.2 m/s)
gusting to 30 MPH (26 knots; 13.4 m/s)
Visibility: 1.55 miles (2.49 km)
Ceiling: 400 feet AGL
Clouds: broken clouds at 400 feet AGL
broken clouds at 900 feet AGL
Weather: SHSN DRSN  (snow showers, low drifting snow)
Text: TEMPO 2207/2215 34016G26KT 2500 SHSN DRSN BKN004 BKN009CB
Forecast period: 0100 to 0600 UTC 23 January 2022
Forecast type: TEMPORARY: The following changes expected for less than half the time period
Winds: from the NNW (340 degrees) at 18 MPH (16 knots; 8.2 m/s)
gusting to 30 MPH (26 knots; 13.4 m/s)
Visibility: 0.50 miles (0.80 km)
Ceiling: 400 feet AGL
Clouds: broken clouds at 400 feet AGL
broken clouds at 900 feet AGL
Weather: +SHSN DRSN  (heavy snow showers, low drifting snow)